createdAt,value
2023-04-16T00:00:16.649Z,78.102206
2023-04-16T00:05:16.192Z,78.416667
2023-04-16T00:10:16.580Z,78.084211
2023-04-16T00:15:16.699Z,77.647482
2023-04-16T00:20:15.988Z,77.729078
2023-04-16T00:25:16.390Z,77.755396
2023-04-16T00:30:15.984Z,77.370922
2023-04-16T00:35:16.706Z,76.368794
2023-04-16T00:40:15.784Z,76.155714
2023-04-16T00:45:16.613Z,76.613475
2023-04-16T00:50:15.816Z,76.873759
2023-04-16T00:55:16.176Z,76.816901
2023-04-16T01:00:16.151Z,76.183099
2023-04-16T01:05:16.449Z,75.920567
2023-04-16T01:10:15.940Z,76.004225
2023-04-16T01:15:17.029Z,75.848592
2023-04-16T01:20:16.038Z,74.973759
2023-04-16T01:25:16.479Z,75.440426
2023-04-16T01:30:16.265Z,75.150355
2023-04-16T01:35:16.119Z,74.868794
2023-04-16T01:40:16.123Z,74.443262
2023-04-16T01:45:15.841Z,73.912766
2023-04-16T01:50:15.832Z,73.871631
2023-04-16T01:55:15.984Z,73.769504
2023-04-16T02:00:16.161Z,73.262676
2023-04-16T02:05:15.874Z,72.838732
2023-04-16T02:10:16.324Z,72.180851
2023-04-16T02:15:16.838Z,71.756028
2023-04-16T02:20:15.950Z,72.294326
2023-04-16T02:25:16.612Z,72.607092
2023-04-16T02:30:17.275Z,72.380420
2023-04-16T02:35:16.004Z,72.138732
2023-04-16T02:40:15.831Z,71.700000
2023-04-16T02:45:15.762Z,71.326950
2023-04-16T02:50:17.097Z,71.175887
2023-04-16T02:55:16.237Z,71.319858
2023-04-16T03:00:15.819Z,71.390845
2023-04-16T03:05:15.785Z,71.166901
2023-04-16T03:10:15.826Z,70.953901
2023-04-16T03:15:16.551Z,70.748227
2023-04-16T03:20:17.248Z,70.520567
2023-04-16T03:25:17.712Z,70.487943
2023-04-16T03:30:15.948Z,70.646099
2023-04-16T03:35:16.689Z,70.495745
2023-04-16T03:40:16.478Z,70.714789
2023-04-16T03:45:16.002Z,70.763194
2023-04-16T03:50:15.785Z,70.758741
2023-04-16T03:55:16.277Z,71.325694
2023-04-16T04:00:16.048Z,71.206897
2023-04-16T04:05:15.864Z,71.558042
2023-04-16T04:10:16.243Z,71.562937
2023-04-16T04:15:16.218Z,71.880420
2023-04-16T04:20:15.983Z,71.342254
2023-04-16T04:25:16.342Z,71.820280
2023-04-16T04:30:16.109Z,71.792361
2023-04-16T04:35:16.194Z,70.879167
2023-04-16T04:40:16.240Z,71.603497
2023-04-16T04:45:16.066Z,71.856552
2023-04-16T04:50:15.675Z,71.318621
2023-04-16T04:55:15.803Z,70.986207
2023-04-16T05:00:17.207Z,70.923288
2023-04-16T05:05:15.823Z,71.852414
2023-04-16T05:10:15.908Z,72.096528
2023-04-16T05:15:16.834Z,72.793007
2023-04-16T05:20:15.701Z,74.086620
2023-04-16T05:25:16.680Z,75.136496
2023-04-16T05:30:16.628Z,75.143885
2023-04-16T05:35:17.442Z,74.673611
2023-04-16T05:40:15.834Z,74.426712
2023-04-16T05:45:16.765Z,74.139161
2023-04-16T05:50:16.073Z,74.751389
2023-04-16T05:55:15.920Z,75.780147
2023-04-16T06:00:15.854Z,76.720588
2023-04-16T06:05:16.268Z,75.902941
2023-04-16T06:10:16.835Z,75.145652
2023-04-16T06:15:16.163Z,74.649630
2023-04-16T06:20:15.913Z,74.745588
2023-04-16T06:25:18.113Z,74.794118
2023-04-16T06:30:16.890Z,75.057664
2023-04-16T06:35:15.895Z,75.430435
2023-04-16T06:40:16.580Z,75.258696
2023-04-16T06:45:15.724Z,75.023358
2023-04-16T06:50:15.969Z,74.937500
2023-04-16T06:55:15.712Z,74.984783
2023-04-16T07:00:16.728Z,75.532609
2023-04-16T07:05:16.282Z,76.504286
2023-04-16T07:10:15.988Z,76.907971
2023-04-16T07:15:15.878Z,77.771111
2023-04-16T07:20:16.188Z,78.076471
2023-04-16T07:25:16.074Z,78.174815
2023-04-16T07:30:16.984Z,78.336296
2023-04-16T07:35:16.513Z,78.179851
2023-04-16T07:40:16.658Z,78.205185
2023-04-16T07:45:15.900Z,78.009774
2023-04-16T07:50:17.194Z,78.184328
2023-04-16T07:55:16.634Z,77.830075
2023-04-16T08:00:15.725Z,76.757447
2023-04-16T08:05:16.001Z,76.019149
2023-04-16T08:10:15.913Z,75.633099
2023-04-16T08:15:16.177Z,75.738235
2023-04-16T08:20:19.096Z,76.051880
2023-04-16T08:25:16.688Z,76.211278
2023-04-16T08:30:15.845Z,75.839706
2023-04-16T08:35:15.735Z,75.291176
2023-04-16T08:40:15.886Z,74.762774
2023-04-16T08:45:16.004Z,75.075735
2023-04-16T08:50:15.742Z,75.327737
2023-04-16T08:55:16.275Z,74.652083
2023-04-16T09:00:15.913Z,74.398582
2023-04-16T09:05:16.811Z,74.231206
2023-04-16T09:10:16.077Z,75.239259
2023-04-16T09:15:15.783Z,75.459286
2023-04-16T09:20:16.133Z,74.146479
2023-04-16T09:25:15.705Z,73.851773
2023-04-16T09:30:16.116Z,74.137762
2023-04-16T09:35:15.838Z,75.350360
2023-04-16T09:40:15.771Z,76.059441
2023-04-16T09:45:15.946Z,76.271831
2023-04-16T09:50:18.226Z,76.669504
2023-04-16T09:55:16.665Z,76.804196
2023-04-16T10:00:15.793Z,77.071942
2023-04-16T10:05:16.280Z,77.919853
2023-04-16T10:10:15.797Z,78.411594
2023-04-16T10:15:15.774Z,78.194161
2023-04-16T10:20:17.297Z,77.694203
2023-04-16T10:25:15.723Z,77.910370
2023-04-16T10:30:16.414Z,79.103650
2023-04-16T10:35:16.648Z,80.063504
2023-04-16T10:40:15.973Z,79.392754
2023-04-16T10:45:16.233Z,80.153957
2023-04-16T10:50:15.916Z,80.246154
2023-04-16T10:55:15.833Z,79.596528
2023-04-16T11:00:16.260Z,79.260690
2023-04-16T11:05:16.044Z,78.748276
2023-04-16T11:10:18.198Z,78.761151
2023-04-16T11:15:16.031Z,80.792754
2023-04-16T11:20:21.163Z,80.638732
2023-04-16T11:25:15.924Z,79.258451
2023-04-16T11:30:15.817Z,78.789583
2023-04-16T11:35:15.696Z,78.116788
2023-04-16T11:40:15.758Z,78.897059
2023-04-16T11:45:15.981Z,79.127612
2023-04-16T11:50:15.927Z,78.946667
2023-04-16T11:55:16.433Z,78.394118
2023-04-16T12:00:15.720Z,77.710949
2023-04-16T12:05:15.757Z,77.396403
2023-04-16T12:10:16.272Z,77.824265
2023-04-16T12:15:16.406Z,78.370073
2023-04-16T12:20:16.106Z,78.427857
2023-04-16T12:25:15.955Z,78.401418
2023-04-16T12:30:15.973Z,78.379861
2023-04-16T12:35:15.867Z,78.543750
2023-04-16T12:40:16.472Z,79.153623
2023-04-16T12:45:15.819Z,79.525362
2023-04-16T12:50:17.754Z,79.391241
2023-04-16T12:55:16.043Z,79.366423
2023-04-16T13:00:16.697Z,79.266667
2023-04-16T13:05:17.214Z,79.244853
2023-04-16T13:10:17.022Z,79.401439
2023-04-16T13:15:15.679Z,78.595804
2023-04-16T13:20:16.783Z,78.240559
2023-04-16T13:25:16.182Z,77.611348
2023-04-16T13:30:16.029Z,77.183803
2023-04-16T13:35:16.236Z,77.747059
2023-04-16T13:40:16.521Z,78.750735
2023-04-16T13:45:15.769Z,78.628889
2023-04-16T13:50:16.205Z,79.285185
2023-04-16T13:55:17.194Z,79.502206
2023-04-16T14:05:16.631Z,79.813846
2023-04-16T14:10:17.612Z,79.600000
2023-04-16T14:15:15.989Z,79.714615
2023-04-16T14:20:16.328Z,79.473913
2023-04-16T14:25:16.199Z,80.112319
2023-04-16T14:30:15.702Z,78.827536
2023-04-16T14:35:15.856Z,78.726812
2023-04-16T14:40:16.262Z,77.829861
2023-04-16T14:45:16.285Z,76.942657
2023-04-16T14:50:16.214Z,76.009929
2023-04-16T14:55:16.144Z,76.066429
2023-04-16T15:00:16.860Z,75.894595
2023-04-16T15:05:16.654Z,76.155634
2023-04-16T15:10:15.994Z,76.744118
2023-04-16T15:15:16.358Z,77.736765
2023-04-16T15:20:16.102Z,78.197849
2023-04-16T15:25:16.618Z,78.066667
2023-04-16T15:30:16.216Z,78.174510
2023-04-16T15:35:16.318Z,77.264336
2023-04-16T15:40:15.867Z,76.200709
2023-04-16T15:45:16.610Z,76.127465
2023-04-16T15:50:16.077Z,75.810638
2023-04-16T15:55:16.283Z,75.818310
2023-04-16T16:00:16.500Z,77.274468
2023-04-16T16:05:15.833Z,78.341429
2023-04-16T16:10:16.307Z,79.198582
2023-04-16T16:15:16.218Z,80.038129
2023-04-16T16:20:16.032Z,80.989362
2023-04-16T16:25:16.695Z,81.361871
2023-04-16T16:30:16.420Z,81.481295
2023-04-16T16:35:15.937Z,81.758088
2023-04-16T16:40:15.897Z,82.430657
2023-04-16T16:45:16.360Z,83.260584
2023-04-16T16:50:16.121Z,84.279562
2023-04-16T16:55:17.139Z,84.604412
2023-04-16T17:00:16.260Z,85.122302
2023-04-16T17:05:15.953Z,86.128261
2023-04-16T17:10:16.497Z,86.958273
2023-04-16T17:15:18.525Z,87.002158
2023-04-16T17:20:15.778Z,86.974101
2023-04-16T17:25:15.848Z,86.937681
2023-04-16T17:30:16.250Z,87.148529
2023-04-16T17:35:15.972Z,87.619118
2023-04-16T17:40:16.061Z,86.875735
2023-04-16T17:45:16.479Z,85.862500
2023-04-16T17:50:16.261Z,85.562963
2023-04-16T17:55:16.432Z,84.766912
2023-04-16T18:00:16.187Z,84.780000
2023-04-16T18:05:16.155Z,84.926667
2023-04-16T18:10:15.903Z,85.015441
2023-04-16T18:15:15.860Z,85.238971
2023-04-16T18:20:15.994Z,85.537956
2023-04-16T18:25:16.607Z,85.940146
2023-04-16T18:30:23.005Z,86.005072
2023-04-16T18:35:16.421Z,85.893382
2023-04-16T18:40:16.759Z,86.132353
2023-04-16T18:45:21.604Z,85.660741
2023-04-16T18:50:16.648Z,85.612143
2023-04-16T18:55:16.813Z,85.175000
2023-04-16T19:00:16.343Z,85.238849
2023-04-16T19:05:16.417Z,85.618978
2023-04-16T19:10:17.357Z,85.455147
2023-04-16T19:15:18.492Z,84.752206
2023-04-16T19:20:16.806Z,84.516912
2023-04-16T19:25:16.361Z,84.814074
2023-04-16T19:30:16.711Z,83.650000
2023-04-16T19:35:18.612Z,83.980882
2023-04-16T19:40:16.223Z,84.703676
2023-04-16T19:45:16.785Z,84.829927
2023-04-16T19:50:21.886Z,84.770803
2023-04-16T19:55:15.819Z,84.157246
2023-04-16T20:00:21.790Z,84.270803
2023-04-16T20:05:29.200Z,83.763043
2023-04-16T20:10:27.359Z,84.306569
2023-04-16T20:15:20.720Z,84.558824
2023-04-16T20:20:21.408Z,84.426866
2023-04-16T20:25:18.605Z,84.798540
2023-04-16T20:30:25.965Z,84.592029
2023-04-16T20:35:19.598Z,84.027206
2023-04-16T20:40:20.332Z,83.484444
2023-04-16T20:45:26.491Z,83.491176
2023-04-16T20:50:24.435Z,83.551449
2023-04-16T20:55:32.170Z,82.788321
2023-04-16T21:00:19.480Z,82.080435
2023-04-16T21:05:17.403Z,82.434307
2023-04-16T21:10:26.031Z,81.908824
2023-04-16T21:15:16.931Z,81.400000
2023-04-16T21:20:23.707Z,80.631618
2023-04-16T21:25:24.899Z,79.492593
2023-04-16T21:30:17.806Z,78.980597
2023-04-16T21:35:18.959Z,78.526119
2023-04-16T21:40:19.858Z,78.266667
2023-04-16T21:45:19.428Z,77.966429
2023-04-16T21:50:28.346Z,76.904930
2023-04-16T21:55:20.984Z,76.537324
2023-04-16T22:00:20.040Z,76.203676
2023-04-16T22:05:28.232Z,76.412950
2023-04-16T22:10:20.421Z,75.801418
2023-04-16T22:15:19.471Z,75.245775
2023-04-16T22:20:26.017Z,75.288571
2023-04-16T22:25:31.217Z,74.836170
2023-04-16T22:30:25.199Z,73.701418
2023-04-16T22:35:25.573Z,73.004965
2023-04-16T22:40:18.411Z,72.327143
2023-04-16T22:45:15.918Z,71.724113
2023-04-16T22:50:16.040Z,71.241429
2023-04-16T22:55:16.274Z,71.532857
2023-04-16T23:00:15.987Z,72.514493
2023-04-16T23:05:23.981Z,75.330597
2023-04-16T23:10:16.792Z,76.759701
2023-04-16T23:15:16.022Z,78.671642
2023-04-16T23:20:15.850Z,77.967164
2023-04-16T23:25:16.557Z,77.362963
2023-04-16T23:30:16.373Z,77.817037
2023-04-16T23:35:16.327Z,75.926667
2023-04-16T23:40:16.046Z,75.908955
2023-04-16T23:45:16.511Z,75.523134
2023-04-16T23:50:17.359Z,75.428889
2023-04-16T23:55:16.294Z,75.500000
